Time;durP1;ratioP1;P1;durP2;ratioP2;P2;SDS_P1;SDS_P2;PMS_P1;PMS_P2;Temp;Humidity;BMP_temperature;BMP_pressure;BME280_temperature;BME280_humidity;BME280_pressure;Samples;Min_cycle;Max_cycle;Signal;HPM_P1;HPM_P2
2022/08/26 00:01:36;;;;;;;;;2.50;2.25;;;;;22.55;64.82;101598.50;5028314;28;8824;-67
2022/08/26 00:04:03;;;;;;;;;3.00;3.00;;;;;22.52;64.29;101595.44;5028686;28;8836;-68
2022/08/26 00:06:31;;;;;;;;;1.00;1.00;;;;;22.47;64.45;101598.97;5030535;28;8913;-68
2022/08/26 00:08:58;;;;;;;;;1.00;1.00;;;;;22.49;64.55;101598.72;5034221;28;8809;-67
2022/08/26 00:11:25;;;;;;;;;2.00;1.00;;;;;22.49;64.36;101593.22;5026372;28;8849;-65
2022/08/26 00:13:54;;;;;;;;;1.25;1.25;;;;;22.38;64.78;101587.59;5026289;28;8828;-65
2022/08/26 00:16:23;;;;;;;;;1.25;1.25;;;;;22.37;64.80;101588.69;5028563;28;8868;-67
2022/08/26 00:18:51;;;;;;;;;1.00;1.00;;;;;22.34;65.06;101591.94;5026117;28;8903;-67
2022/08/26 00:21:18;;;;;;;;;1.00;1.00;;;;;22.36;64.86;101591.69;5027945;28;8836;-68
2022/08/26 00:23:45;;;;;;;;;1.75;1.75;;;;;22.34;64.98;101588.38;5026121;28;8828;-66
2022/08/26 00:26:12;;;;;;;;;1.00;1.00;;;;;22.30;65.24;101596.28;5028963;28;9533;-67
2022/08/26 00:28:39;;;;;;;;;1.25;1.25;;;;;22.36;64.83;101586.19;5030586;28;8833;-66
2022/08/26 00:31:06;;;;;;;;;1.25;1.25;;;;;22.32;64.75;101591.38;5027779;28;9623;-67
2022/08/26 00:33:33;;;;;;;;;0.50;0.50;;;;;22.34;65.13;101597.44;5021982;28;8886;-66
2022/08/26 00:36:00;;;;;;;;;2.00;2.00;;;;;22.42;64.93;101590.66;5026835;28;8828;-67
2022/08/26 00:38:27;;;;;;;;;1.25;1.00;;;;;22.46;64.50;101589.91;5025626;28;8816;-67
2022/08/26 00:40:56;;;;;;;;;1.00;1.00;;;;;22.49;64.42;101602.28;5014999;28;8873;-67
2022/08/26 00:43:24;;;;;;;;;1.00;1.00;;;;;22.41;64.55;101600.00;5022158;28;9494;-66
2022/08/26 00:45:56;;;;;;;;;1.25;1.25;;;;;22.34;64.88;101596.59;5024050;28;8817;-66
2022/08/26 00:48:28;;;;;;;;;2.25;1.00;;;;;22.33;64.93;101594.94;5025999;28;8835;-67
2022/08/26 00:51:03;;;;;;;;;1.75;1.00;;;;;22.25;65.25;101593.47;5027473;28;8833;-65
2022/08/26 00:53:34;;;;;;;;;2.00;2.00;;;;;22.24;65.10;101600.06;5030340;28;8812;-67
2022/08/26 00:56:16;;;;;;;;;1.00;1.00;;;;;22.23;65.24;101592.88;5029676;28;9533;-69
2022/08/26 00:58:44;;;;;;;;;0.25;0.25;;;;;22.28;65.13;101589.38;5009451;28;8861;-66
2022/08/26 01:01:11;;;;;;;;;0.00;0.00;;;;;22.26;65.14;101595.13;5026881;28;8970;-66
2022/08/26 01:03:40;;;;;;;;;1.00;1.00;;;;;22.24;65.02;101600.06;5030299;28;8820;-68
2022/08/26 01:06:08;;;;;;;;;1.00;1.00;;;;;22.23;65.23;101600.28;5029876;28;8828;-68
2022/08/26 01:08:39;;;;;;;;;1.00;1.00;;;;;22.25;64.99;101600.88;5022369;28;8833;-66
2022/08/26 01:11:07;;;;;;;;;2.25;2.25;;;;;22.20;65.20;101598.88;5029725;28;8859;-67
2022/08/26 01:13:35;;;;;;;;;3.00;2.00;;;;;22.17;65.16;101600.22;5029580;28;8838;-68
2022/08/26 01:16:04;;;;;;;;;1.00;1.00;;;;;22.19;65.18;101589.81;5026421;28;8918;-69
2022/08/26 01:18:32;;;;;;;;;1.00;1.00;;;;;22.19;65.16;101583.50;5024533;28;8824;-68
2022/08/26 01:21:04;;;;;;;;;0.00;0.00;;;;;22.16;65.54;101586.75;5026181;28;8994;-66
2022/08/26 01:23:38;;;;;;;;;2.00;1.00;;;;;22.17;65.24;101589.25;5026653;28;8963;-67
2022/08/26 01:26:17;;;;;;;;;1.00;1.00;;;;;22.18;65.44;101588.16;5023345;28;8859;-66
2022/08/26 01:28:47;;;;;;;;;0.00;0.00;;;;;22.17;65.02;101589.25;5025110;28;8921;-67
2022/08/26 01:31:28;;;;;;;;;1.00;1.00;;;;;22.15;64.92;101596.06;5028032;28;8840;-67
2022/08/26 01:34:16;;;;;;;;;0.50;0.50;;;;;22.10;65.30;101588.56;5025011;28;8837;-67
2022/08/26 01:36:44;;;;;;;;;0.75;0.75;;;;;22.14;65.33;101589.75;5029079;28;9518;-66
2022/08/26 01:39:17;;;;;;;;;2.00;1.00;;;;;22.20;65.04;101593.38;5025820;28;8844;-66
2022/08/26 01:41:44;;;;;;;;;0.75;0.50;;;;;22.18;64.73;101603.78;5023087;28;8858;-66
2022/08/26 01:44:17;;;;;;;;;0.00;0.00;;;;;22.17;65.31;101605.72;5033368;28;8894;-66
2022/08/26 01:46:47;;;;;;;;;1.00;1.00;;;;;22.10;65.07;101605.03;5027049;28;9529;-69
2022/08/26 01:49:17;;;;;;;;;0.00;0.00;;;;;22.15;65.23;101604.28;5030665;28;8848;-67
2022/08/26 01:51:46;;;;;;;;;2.75;1.00;;;;;22.13;65.29;101601.00;5024515;28;8844;-69
2022/08/26 01:54:13;;;;;;;;;1.00;0.25;;;;;22.07;65.02;101591.81;5032744;28;8820;-68
2022/08/26 01:56:40;;;;;;;;;0.25;0.25;;;;;22.00;65.42;101596.66;5027139;28;8935;-68
2022/08/26 01:59:11;;;;;;;;;0.00;0.00;;;;;21.96;65.88;101593.59;5022101;28;8851;-68
2022/08/26 02:01:39;;;;;;;;;1.75;1.00;;;;;21.94;65.85;101605.88;5045444;28;8817;-68
2022/08/26 02:04:16;;;;;;;;;0.00;0.00;;;;;21.94;65.90;101609.44;5032804;28;8835;-68
2022/08/26 02:06:43;;;;;;;;;0.00;0.00;;;;;21.95;65.70;101616.59;5028985;28;8836;-66
2022/08/26 02:09:11;;;;;;;;;0.00;0.00;;;;;21.98;65.67;101607.88;5028092;28;8819;-66
2022/08/26 02:11:40;;;;;;;;;0.25;0.00;;;;;22.01;65.75;101613.94;5024513;28;8850;-68
2022/08/26 02:14:21;;;;;;;;;0.50;0.50;;;;;22.01;65.59;101603.81;5028001;28;8829;-68
2022/08/26 02:16:50;;;;;;;;;2.00;0.25;;;;;21.96;65.73;101598.25;5025159;28;8816;-65
2022/08/26 02:19:26;;;;;;;;;0.50;0.00;;;;;21.98;65.79;101607.03;5031280;28;8823;-67
2022/08/26 02:21:52;;;;;;;;;0.00;0.00;;;;;21.98;65.57;101604.28;5032671;28;9493;-67
2022/08/26 02:24:23;;;;;;;;;2.00;0.00;;;;;22.00;65.66;101602.16;5033201;28;8817;-67
2022/08/26 02:26:54;;;;;;;;;0.00;0.00;;;;;21.98;65.56;101596.06;5021144;28;8839;-67
2022/08/26 02:29:23;;;;;;;;;2.00;0.75;;;;;21.89;65.86;101595.69;5032969;28;8824;-66
2022/08/26 02:31:51;;;;;;;;;0.00;0.00;;;;;21.88;66.05;101604.16;5033046;28;8823;-66
2022/08/26 02:34:21;;;;;;;;;0.00;0.00;;;;;21.87;66.23;101597.00;5030868;28;10503;-67
2022/08/26 02:36:48;;;;;;;;;1.25;0.00;;;;;21.86;65.91;101606.31;5028769;28;8910;-66
2022/08/26 02:39:16;;;;;;;;;0.00;0.00;;;;;21.78;66.03;101609.47;5027284;28;8876;-67
2022/08/26 02:41:47;;;;;;;;;0.50;0.50;;;;;21.72;66.48;101606.66;5028383;28;8840;-66
2022/08/26 02:44:14;;;;;;;;;0.25;0.25;;;;;21.71;66.52;101609.63;5024415;28;8844;-66
2022/08/26 02:46:41;;;;;;;;;1.00;1.00;;;;;21.73;66.41;101608.31;5028644;28;8832;-66
2022/08/26 02:49:13;;;;;;;;;0.00;0.00;;;;;21.71;66.23;101610.50;5031468;28;8824;-66
2022/08/26 02:51:40;;;;;;;;;0.00;0.00;;;;;21.73;66.72;101602.00;5032076;28;8844;-68
2022/08/26 02:54:08;;;;;;;;;0.00;0.00;;;;;21.71;66.41;101601.41;5026612;28;9533;-66
2022/08/26 02:56:35;;;;;;;;;2.00;0.00;;;;;21.65;66.36;101595.03;5020441;28;8847;-65
2022/08/26 02:59:01;;;;;;;;;1.00;0.00;;;;;21.62;66.76;101609.22;5024550;28;8851;-66
2022/08/26 03:01:31;;;;;;;;;1.00;1.00;;;;;21.58;66.73;101594.34;5030523;28;8851;-67
2022/08/26 03:04:00;;;;;;;;;1.00;1.00;;;;;21.54;67.16;101598.69;5031243;28;8825;-67
2022/08/26 03:06:26;;;;;;;;;0.25;0.25;;;;;21.53;67.12;101601.69;5027725;28;8937;-66
2022/08/26 03:08:54;;;;;;;;;0.00;0.00;;;;;21.53;67.29;101602.50;5028777;28;8817;-67
2022/08/26 03:11:22;;;;;;;;;1.25;0.00;;;;;21.54;67.15;101600.59;5030740;28;8825;-67
2022/08/26 03:13:50;;;;;;;;;0.50;0.50;;;;;21.56;67.04;101599.28;5023027;28;8832;-67
2022/08/26 03:16:17;;;;;;;;;1.00;1.00;;;;;21.55;67.16;101602.25;5031564;28;8938;-66
2022/08/26 03:18:44;;;;;;;;;0.00;0.00;;;;;21.56;67.01;101598.44;5025692;28;8841;-65
2022/08/26 03:21:18;;;;;;;;;1.00;1.00;;;;;21.59;67.04;101609.75;5031882;28;8840;-66
2022/08/26 03:23:45;;;;;;;;;0.00;0.00;;;;;21.57;66.92;101602.84;5031753;28;8939;-65
2022/08/26 03:26:14;;;;;;;;;0.50;0.50;;;;;21.54;66.97;101606.91;5032936;28;8971;-66
2022/08/26 03:31:28;;;;;;;;;1.00;1.00;;;;;21.57;66.80;101605.59;5025409;28;9010;-65
2022/08/26 03:33:55;;;;;;;;;0.00;0.00;;;;;21.59;66.85;101601.53;5032087;28;8879;-66
2022/08/26 03:36:25;;;;;;;;;0.00;0.00;;;;;21.63;66.68;101601.84;5033761;28;8871;-66
2022/08/26 03:38:52;;;;;;;;;1.00;1.00;;;;;21.64;66.36;101598.84;5032735;28;8923;-66
2022/08/26 03:41:20;;;;;;;;;0.00;0.00;;;;;21.57;66.27;101589.97;5025313;28;8858;-65
2022/08/26 03:43:47;;;;;;;;;1.25;1.25;;;;;21.53;66.37;101598.94;5031902;28;8841;-66
2022/08/26 03:46:13;;;;;;;;;0.75;0.75;;;;;21.53;66.39;101602.50;5023333;28;8947;-65
2022/08/26 03:48:40;;;;;;;;;1.00;0.00;;;;;21.51;66.23;101598.34;5026826;28;8844;-65
2022/08/26 03:51:15;;;;;;;;;0.00;0.00;;;;;21.50;66.45;101602.16;5023696;28;8954;-65
2022/08/26 03:53:44;;;;;;;;;0.00;0.00;;;;;21.50;66.59;101596.69;5031574;28;8948;-65
2022/08/26 03:56:11;;;;;;;;;0.00;0.00;;;;;21.48;66.60;101606.00;5032922;28;9660;-65
2022/08/26 03:58:38;;;;;;;;;0.00;0.00;;;;;21.47;66.61;101603.47;5018367;28;8815;-66
2022/08/26 04:01:08;;;;;;;;;1.00;1.00;;;;;21.43;66.42;101605.91;5013641;28;8920;-66
2022/08/26 04:06:19;;;;;;;;;0.00;0.00;;;;;21.41;66.96;101597.09;5032762;28;8848;-66
2022/08/26 04:08:47;;;;;;;;;0.75;0.75;;;;;21.41;66.77;101588.06;5027525;28;8848;-66
2022/08/26 04:11:18;;;;;;;;;0.00;0.00;;;;;21.46;66.99;101596.34;5023187;28;8871;-65
2022/08/26 04:13:46;;;;;;;;;1.00;1.00;;;;;21.46;66.71;101594.44;5013324;28;8947;-65
2022/08/26 04:16:16;;;;;;;;;1.00;0.00;;;;;21.43;66.79;101592.22;5031520;28;8834;-65
2022/08/26 04:18:42;;;;;;;;;1.00;1.00;;;;;21.39;67.05;101590.19;5031178;28;8955;-65
2022/08/26 04:21:13;;;;;;;;;1.00;1.00;;;;;21.39;67.13;101592.94;5032917;28;8825;-65
2022/08/26 04:23:41;;;;;;;;;0.00;0.00;;;;;21.42;67.14;101596.00;5032984;28;8910;-65
2022/08/26 04:26:14;;;;;;;;;1.00;1.00;;;;;21.39;67.35;101595.69;5026801;28;8808;-65
2022/08/26 04:28:40;;;;;;;;;1.00;1.00;;;;;21.42;67.13;101600.66;5020997;28;9533;-65
2022/08/26 04:31:11;;;;;;;;;0.00;0.00;;;;;21.42;67.27;101603.41;5032406;28;9584;-65
2022/08/26 04:33:37;;;;;;;;;1.00;1.00;;;;;21.40;66.74;101600.09;5032185;28;8817;-65
2022/08/26 04:36:07;;;;;;;;;0.75;0.75;;;;;21.37;67.11;101603.31;5018253;28;8844;-65
2022/08/26 04:38:34;;;;;;;;;0.50;0.50;;;;;21.39;66.91;101598.41;5027607;28;8842;-66
2022/08/26 04:41:02;;;;;;;;;0.50;0.00;;;;;21.43;66.92;101597.69;5026437;28;8955;-65
2022/08/26 04:43:30;;;;;;;;;0.00;0.00;;;;;21.37;66.85;101595.94;5032403;28;8828;-65
2022/08/26 04:46:00;;;;;;;;;0.00;0.00;;;;;21.34;67.12;101593.69;5030770;28;9545;-65
2022/08/26 04:48:29;;;;;;;;;0.00;0.00;;;;;21.30;67.13;101589.75;5027540;28;8848;-66
2022/08/26 04:50:57;;;;;;;;;0.00;0.00;;;;;21.35;67.18;101591.78;5032272;28;8847;-65
2022/08/26 04:53:24;;;;;;;;;1.50;0.75;;;;;21.26;66.93;101587.75;5027360;28;8915;-65
2022/08/26 04:55:51;;;;;;;;;1.25;0.75;;;;;21.25;67.06;101595.16;5030132;28;8832;-65
2022/08/26 04:58:23;;;;;;;;;1.00;0.00;;;;;21.26;67.23;101595.97;5027567;28;8844;-65
2022/08/26 05:00:53;;;;;;;;;0.00;0.00;;;;;21.28;67.15;101596.56;5030178;28;9524;-64
2022/08/26 05:03:22;;;;;;;;;0.00;0.00;;;;;21.29;66.65;101590.00;5027508;28;8836;-64
2022/08/26 05:05:49;;;;;;;;;0.00;0.00;;;;;21.29;66.65;101590.00;5029703;28;8840;-65
2022/08/26 05:08:18;;;;;;;;;0.00;0.00;;;;;21.23;66.80;101595.41;5022163;28;8935;-65
2022/08/26 05:10:55;;;;;;;;;0.75;0.75;;;;;21.22;66.76;101596.47;5023229;28;8836;-65
2022/08/26 05:13:25;;;;;;;;;1.00;1.00;;;;;21.25;66.87;101608.84;5020553;28;8811;-65
2022/08/26 05:15:52;;;;;;;;;0.00;0.00;;;;;21.28;66.66;101611.09;5017387;28;8911;-65
2022/08/26 05:18:22;;;;;;;;;1.00;1.00;;;;;21.30;66.17;101617.13;5023357;28;8844;-66
2022/08/26 05:20:51;;;;;;;;;1.00;0.75;;;;;21.20;66.26;101620.53;5024695;28;9299;-66
2022/08/26 05:23:24;;;;;;;;;1.00;1.00;;;;;21.15;66.43;101620.44;5027021;28;9610;-65
2022/08/26 05:25:53;;;;;;;;;1.00;1.00;;;;;21.14;66.30;101624.25;5015912;28;8847;-65
2022/08/26 05:28:27;;;;;;;;;0.00;0.00;;;;;21.11;66.36;101621.19;5018906;28;9529;-65
2022/08/26 05:30:55;;;;;;;;;0.25;0.00;;;;;21.16;66.43;101624.84;5031651;28;8872;-65
2022/08/26 05:33:22;;;;;;;;;0.00;0.00;;;;;21.22;66.23;101626.56;5049513;28;8814;-66
2022/08/26 05:35:48;;;;;;;;;0.00;0.00;;;;;21.21;66.10;101626.84;5050705;28;8849;-65
2022/08/26 05:38:18;;;;;;;;;0.00;0.00;;;;;21.16;65.77;101627.56;5032038;28;8923;-67
2022/08/26 05:40:48;;;;;;;;;0.25;0.25;;;;;21.06;65.97;101634.75;5029051;28;8903;-67
2022/08/26 05:43:19;;;;;;;;;0.00;0.00;;;;;21.06;66.09;101637.50;5029086;28;8831;-65
2022/08/26 05:45:48;;;;;;;;;0.00;0.00;;;;;20.98;65.95;101639.56;5012489;28;8839;-65
2022/08/26 05:48:17;;;;;;;;;0.00;0.00;;;;;21.01;65.90;101637.41;5029835;28;8812;-66
2022/08/26 05:50:50;;;;;;;;;1.00;0.00;;;;;21.06;65.99;101634.75;5021941;28;8824;-66
2022/08/26 05:53:20;;;;;;;;;0.00;0.00;;;;;21.09;65.41;101646.06;5021409;28;8854;-66
2022/08/26 05:55:52;;;;;;;;;0.00;0.00;;;;;21.06;65.50;101651.19;5027650;28;9569;-66
2022/08/26 05:58:20;;;;;;;;;1.25;0.25;;;;;21.04;65.85;101656.09;5030160;28;8907;-65
2022/08/26 06:01:05;;;;;;;;;0.00;0.00;;;;;21.11;65.68;101654.03;5029854;28;9664;-65
2022/08/26 06:03:35;;;;;;;;;0.25;0.00;;;;;21.10;65.41;101650.44;5027061;28;8848;-65
2022/08/26 06:06:07;;;;;;;;;0.00;0.00;;;;;21.08;65.48;101655.34;5026700;28;9514;-65
2022/08/26 06:08:36;;;;;;;;;0.00;0.00;;;;;21.04;65.70;101656.91;5019336;28;8821;-65
2022/08/26 06:11:06;;;;;;;;;1.00;0.00;;;;;21.05;65.44;101657.75;5023839;28;8902;-65
2022/08/26 06:13:33;;;;;;;;;2.00;0.00;;;;;21.04;65.71;101653.34;5026995;28;9582;-65
2022/08/26 06:16:03;;;;;;;;;0.50;0.00;;;;;21.02;65.83;101650.00;5028012;28;9509;-65
2022/08/26 06:18:35;;;;;;;;;0.00;0.00;;;;;20.99;65.84;101660.38;5028162;28;8939;-65
2022/08/26 06:21:10;;;;;;;;;0.00;0.00;;;;;20.99;65.82;101662.31;5028377;28;8840;-65
2022/08/26 06:26:24;;;;;;;;;0.00;0.00;;;;;20.94;65.86;101664.91;5023957;28;8827;-66
2022/08/26 06:28:51;;;;;;;;;1.00;0.00;;;;;20.96;65.89;101669.09;5033135;28;8848;-66
2022/08/26 06:31:17;;;;;;;;;0.25;0.25;;;;;21.00;65.56;101666.69;5032748;28;8931;-66
2022/08/26 06:33:44;;;;;;;;;0.00;0.00;;;;;21.00;65.67;101674.91;5027333;28;8819;-66
2022/08/26 06:36:22;;;;;;;;;0.00;0.00;;;;;21.05;65.54;101669.53;5024060;28;8848;-66
2022/08/26 06:38:50;;;;;;;;;0.00;0.00;;;;;20.99;65.18;101678.72;5023894;28;8845;-65
2022/08/26 06:41:18;;;;;;;;;0.00;0.00;;;;;20.99;65.49;101670.50;5021480;28;8859;-66
2022/08/26 06:43:46;;;;;;;;;1.00;0.00;;;;;20.98;65.07;101677.91;5026221;28;8828;-67
2022/08/26 06:46:15;;;;;;;;;0.00;0.00;;;;;21.02;65.27;101678.22;5027652;28;8835;-65
2022/08/26 06:48:43;;;;;;;;;0.00;0.00;;;;;20.96;64.96;101662.78;5026134;28;8813;-66
2022/08/26 06:51:14;;;;;;;;;0.00;0.00;;;;;20.90;65.11;101670.06;5025918;28;8832;-65
2022/08/26 06:53:45;;;;;;;;;0.75;0.00;;;;;20.92;65.38;101678.84;5030354;28;8823;-67
2022/08/26 06:56:16;;;;;;;;;1.00;0.00;;;;;20.98;65.12;101677.91;5024133;28;8886;-65
2022/08/26 06:58:42;;;;;;;;;0.00;0.00;;;;;20.93;65.30;101680.50;5027793;28;8886;-65
2022/08/26 07:01:45;;;;;;;;;0.00;0.00;;;;;20.97;65.42;101681.69;5029174;28;8963;-65
2022/08/26 07:04:13;;;;;;;;;0.00;0.00;;;;;21.03;65.01;101688.13;5020919;28;8844;-66
2022/08/26 07:06:47;;;;;;;;;0.00;0.00;;;;;20.99;65.00;101685.03;5026936;28;8819;-66
2022/08/26 07:09:15;;;;;;;;;0.00;0.00;;;;;21.04;64.91;101695.25;5032159;28;8921;-65
2022/08/26 07:11:43;;;;;;;;;1.75;0.75;;;;;20.98;64.94;101698.94;5026970;28;8876;-66
2022/08/26 07:14:11;;;;;;;;;0.00;0.00;;;;;20.96;64.85;101701.09;5031439;28;8863;-66
2022/08/26 07:16:38;;;;;;;;;1.00;0.00;;;;;20.99;65.04;101701.44;5026614;28;8836;-68
2022/08/26 07:19:06;;;;;;;;;0.00;0.00;;;;;20.98;64.75;101707.16;5028011;28;8877;-67
2022/08/26 07:21:40;;;;;;;;;1.00;0.00;;;;;21.01;64.82;101706.66;5032815;28;8994;-66
2022/08/26 07:24:08;;;;;;;;;0.25;0.25;;;;;20.98;64.56;101699.78;5027917;28;8840;-66
2022/08/26 07:26:38;;;;;;;;;0.50;0.00;;;;;21.04;65.00;101714.41;5033287;28;8820;-67
2022/08/26 07:29:08;;;;;;;;;1.00;1.00;;;;;21.03;65.08;101712.75;5026062;28;8821;-66
2022/08/26 07:31:36;;;;;;;;;1.75;1.00;;;;;21.10;64.80;101718.91;5030066;28;8842;-66
2022/08/26 07:34:08;;;;;;;;;0.00;0.00;;;;;21.09;64.72;101716.41;5017177;28;8835;-66
2022/08/26 07:36:35;;;;;;;;;0.00;0.00;;;;;21.08;64.65;101723.78;5027184;28;8923;-66
2022/08/26 07:39:01;;;;;;;;;0.75;0.00;;;;;21.07;64.83;101729.53;5049769;28;8832;-67
2022/08/26 07:41:28;;;;;;;;;0.00;0.00;;;;;21.00;64.79;101724.19;5033088;28;8906;-65
2022/08/26 07:43:55;;;;;;;;;0.00;0.00;;;;;20.97;64.95;101724.66;5034026;28;8808;-66
2022/08/26 07:46:23;;;;;;;;;1.00;0.00;;;;;20.93;65.15;101729.78;5028776;28;8829;-65
2022/08/26 07:48:56;;;;;;;;;0.00;0.00;;;;;20.91;65.10;101714.69;5026584;28;8858;-66
2022/08/26 07:51:24;;;;;;;;;0.00;0.00;;;;;20.93;65.22;101728.94;5024430;28;8808;-67
2022/08/26 07:53:50;;;;;;;;;0.00;0.00;;;;;20.97;65.11;101724.66;5016042;28;8825;-67
2022/08/26 07:56:19;;;;;;;;;0.00;0.00;;;;;21.07;65.26;101732.25;5027246;28;8858;-66
2022/08/26 07:58:46;;;;;;;;;0.75;0.75;;;;;21.04;64.87;101736.31;5026196;28;8847;-66
2022/08/26 08:01:17;;;;;;;;;0.00;0.00;;;;;21.07;64.45;101740.47;5023840;28;8887;-66
2022/08/26 08:03:44;;;;;;;;;0.00;0.00;;;;;21.10;64.42;101745.44;5026208;28;8809;-65
2022/08/26 08:06:10;;;;;;;;;0.00;0.00;;;;;21.00;64.28;101740.59;5027876;28;8946;-68
2022/08/26 08:08:39;;;;;;;;;0.00;0.00;;;;;20.97;64.46;101736.44;5023359;28;8871;-65
2022/08/26 08:11:06;;;;;;;;;0.00;0.00;;;;;20.99;64.40;101738.94;5029685;28;8833;-67
2022/08/26 08:13:37;;;;;;;;;0.50;0.00;;;;;21.00;64.33;101737.88;5021016;28;8824;-65
2022/08/26 08:16:04;;;;;;;;;0.00;0.00;;;;;21.02;64.40;101741.19;5023977;28;8823;-66
2022/08/26 08:18:31;;;;;;;;;0.00;0.00;;;;;21.09;64.30;101741.88;5024133;28;8882;-66
2022/08/26 08:21:00;;;;;;;;;0.00;0.00;;;;;21.12;64.22;101737.84;5025258;28;8981;-66
2022/08/26 08:23:47;;;;;;;;;0.00;0.00;;;;;21.16;63.99;101748.06;5026206;28;8942;-66
2022/08/26 08:26:14;;;;;;;;;0.50;0.50;;;;;21.05;64.04;101748.09;5029685;28;8856;-66
2022/08/26 08:28:42;;;;;;;;;0.00;0.00;;;;;21.05;63.80;101746.19;5023436;28;8945;-65
2022/08/26 08:31:36;;;;;;;;;0.00;0.00;;;;;20.99;63.58;101744.41;5028795;28;8813;-66
2022/08/26 08:34:25;;;;;;;;;0.75;0.00;;;;;21.05;63.65;101740.69;5028197;28;9537;-66
2022/08/26 08:36:52;;;;;;;;;0.00;0.00;;;;;21.05;63.58;101748.09;5031196;28;9553;-66
2022/08/26 08:39:19;;;;;;;;;0.00;0.00;;;;;20.97;63.78;101741.06;5027268;28;9998;-66
2022/08/26 08:41:52;;;;;;;;;0.00;0.00;;;;;20.95;63.82;101749.53;5030119;28;8993;-66
2022/08/26 08:44:23;;;;;;;;;0.00;0.00;;;;;21.01;63.86;101744.16;5023616;28;8855;-66
2022/08/26 08:47:00;;;;;;;;;0.00;0.00;;;;;21.02;63.78;101752.13;5044504;28;8832;-65
2022/08/26 08:49:29;;;;;;;;;0.00;0.00;;;;;21.02;63.72;101751.28;5021247;28;8951;-65
2022/08/26 08:52:03;;;;;;;;;0.00;0.00;;;;;21.02;63.55;101749.38;5027467;28;8817;-65
2022/08/26 08:54:30;;;;;;;;;0.25;0.00;;;;;21.03;63.72;101742.03;5025391;28;8820;-65
2022/08/26 08:57:11;;;;;;;;;0.00;0.00;;;;;21.13;63.66;101747.69;5032021;28;8824;-65
2022/08/26 09:00:18;;;;;;;;;0.00;0.00;;;;;21.24;63.20;101764.09;5033228;28;8970;-66
2022/08/26 09:03:16;;;;;;;;;0.00;0.00;;;;;21.28;62.74;101763.63;5020695;28;8841;-66
2022/08/26 09:05:44;;;;;;;;;0.00;0.00;;;;;21.30;62.81;101759.53;5031617;28;8894;-65
2022/08/26 09:08:23;;;;;;;;;0.00;0.00;;;;;21.35;62.63;101758.84;5031362;28;8832;-66
2022/08/26 09:10:57;;;;;;;;;0.00;0.00;;;;;21.38;62.66;101756.44;5023348;28;8844;-65
2022/08/26 09:13:25;;;;;;;;;0.00;0.00;;;;;21.36;62.05;101744.94;5032787;28;8828;-66
2022/08/26 09:16:12;;;;;;;;;0.00;0.00;;;;;21.29;61.98;101746.09;5032223;28;8963;-65
2022/08/26 09:18:46;;;;;;;;;0.00;0.00;;;;;21.28;62.03;101741.72;5031020;28;8950;-66
2022/08/26 09:21:15;;;;;;;;;0.25;0.00;;;;;21.29;61.76;101744.19;5022951;28;8829;-65
2022/08/26 09:23:44;;;;;;;;;0.00;0.00;;;;;21.34;61.61;101741.59;5031679;28;8820;-66
2022/08/26 09:26:26;;;;;;;;;0.00;0.00;;;;;21.32;61.57;101742.88;5028601;28;8859;-65
2022/08/26 09:29:02;;;;;;;;;0.00;0.00;;;;;21.30;61.54;101745.84;5029696;28;9696;-65
2022/08/26 09:31:32;;;;;;;;;0.00;0.00;;;;;21.39;61.75;101760.03;5024172;28;8816;-66
2022/08/26 09:34:18;;;;;;;;;1.00;0.00;;;;;21.51;61.58;101770.94;5029950;28;8825;-65
2022/08/26 09:36:48;;;;;;;;;0.00;0.00;;;;;21.52;60.93;101778.94;5025642;28;8836;-65
2022/08/26 09:39:26;;;;;;;;;0.00;0.00;;;;;21.51;60.97;101768.19;5012881;28;8893;-67
2022/08/26 09:42:23;;;;;;;;;0.00;0.00;;;;;21.48;60.64;101755.84;5026573;28;8851;-66
2022/08/26 09:44:53;;;;;;;;;0.00;0.00;;;;;21.41;60.78;101758.72;5021145;28;9628;-65
2022/08/26 09:47:54;;;;;;;;;0.00;0.00;;;;;21.40;60.86;101767.19;5030112;28;8832;-66
2022/08/26 09:50:33;;;;;;;;;0.00;0.00;;;;;21.42;60.95;101759.53;5028337;28;8816;-65
2022/08/26 09:53:21;;;;;;;;;0.00;0.00;;;;;21.34;60.69;101758.00;5031757;28;8860;-66
2022/08/26 09:56:24;;;;;;;;;0.00;0.00;;;;;21.36;60.95;101760.53;5019875;28;8828;-66
2022/08/26 09:58:54;;;;;;;;;0.00;0.00;;;;;21.35;61.00;101761.59;5023813;28;8895;-65
2022/08/26 10:01:34;;;;;;;;;1.00;0.00;;;;;21.37;61.13;101763.00;5030381;28;8844;-66
2022/08/26 10:04:06;;;;;;;;;0.00;0.00;;;;;21.36;61.41;101766.00;5033722;28;8835;-66
2022/08/26 10:06:39;;;;;;;;;0.25;0.25;;;;;21.30;61.29;101762.28;5031485;28;8813;-65
2022/08/26 10:09:12;;;;;;;;;1.50;0.50;;;;;21.28;61.69;101760.88;5025661;28;8813;-65
2022/08/26 10:11:46;;;;;;;;;0.25;0.25;;;;;21.32;61.74;101764.81;5029763;28;8862;-65
2022/08/26 10:14:23;;;;;;;;;1.25;0.25;;;;;21.35;61.77;101759.69;5037007;28;8955;-65
2022/08/26 10:17:00;;;;;;;;;2.00;0.00;;;;;21.34;61.72;101752.53;5035540;28;8833;-66
2022/08/26 10:19:34;;;;;;;;;0.00;0.00;;;;;21.27;61.96;101751.84;5025465;28;8808;-65
2022/08/26 10:22:44;;;;;;;;;0.00;0.00;;;;;21.22;61.77;101751.72;5025813;28;8854;-66
2022/08/26 10:25:24;;;;;;;;;0.00;0.00;;;;;21.31;62.03;101752.16;5035810;28;8816;-67
2022/08/26 10:27:59;;;;;;;;;1.50;0.25;;;;;21.32;61.61;101757.44;5035397;28;9520;-67
2022/08/26 10:30:33;;;;;;;;;1.50;1.00;;;;;21.36;61.58;101755.88;5040843;28;8869;-67
2022/08/26 10:33:05;;;;;;;;;1.00;1.00;;;;;21.41;61.37;101763.34;5036246;28;8851;-66
2022/08/26 10:35:35;;;;;;;;;1.00;1.00;;;;;21.34;61.27;101747.06;5034538;28;8951;-65
2022/08/26 10:38:14;;;;;;;;;1.00;0.00;;;;;21.32;61.16;101748.38;5021393;28;8937;-66
2022/08/26 10:40:57;;;;;;;;;0.50;0.50;;;;;21.24;61.39;101757.78;5027384;28;8820;-65
2022/08/26 10:43:55;;;;;;;;;2.00;1.00;;;;;21.31;61.35;101758.50;5035720;28;8979;-65
2022/08/26 10:46:27;;;;;;;;;1.00;0.00;;;;;21.36;60.93;101753.13;5034121;28;8903;-66
2022/08/26 10:49:11;;;;;;;;;1.00;1.00;;;;;21.38;60.97;101758.34;5028059;28;8938;-66
2022/08/26 10:52:03;;;;;;;;;1.00;1.00;;;;;21.37;60.99;101767.66;5028661;28;8966;-65
2022/08/26 10:54:52;;;;;;;;;1.00;1.00;;;;;21.42;60.68;101759.53;5021404;28;8849;-66
2022/08/26 10:57:49;;;;;;;;;0.00;0.00;;;;;21.41;60.10;101755.97;5023135;28;8918;-66
2022/08/26 11:03:11;;;;;;;;;0.00;0.00;;;;;21.45;59.86;101756.31;5036058;28;8839;-65
2022/08/26 11:06:34;;;;;;;;;0.00;0.00;;;;;21.47;60.06;101756.88;5031651;28;8824;-65
2022/08/26 11:09:05;;;;;;;;;0.50;0.50;;;;;21.55;60.00;101764.72;5029235;28;8832;-66
2022/08/26 11:11:40;;;;;;;;;0.00;0.00;;;;;21.59;59.85;101760.44;5028239;28;8878;-68
2022/08/26 11:14:27;;;;;;;;;0.75;0.75;;;;;21.61;59.75;101761.00;5035364;28;8939;-67
2022/08/26 11:16:58;;;;;;;;;0.00;0.00;;;;;21.63;59.86;101764.34;5025210;28;8943;-65
2022/08/26 11:19:34;;;;;;;;;0.00;0.00;;;;;21.62;59.83;101765.41;5027715;28;8933;-66
2022/08/26 11:22:34;;;;;;;;;1.25;1.25;;;;;21.57;59.39;101772.72;5031030;28;9502;-65
2022/08/26 11:25:07;;;;;;;;;0.50;0.00;;;;;21.54;59.27;101768.53;5027986;28;8957;-64
2022/08/26 11:27:37;;;;;;;;;0.50;0.50;;;;;21.59;59.10;101776.88;5028762;28;8834;-67
2022/08/26 11:30:18;;;;;;;;;0.75;0.25;;;;;21.59;59.19;101765.91;5015163;28;8906;-67
2022/08/26 11:32:54;;;;;;;;;2.00;0.75;;;;;21.59;59.08;101768.66;5034700;28;8816;-66
2022/08/26 11:35:22;;;;;;;;;0.00;0.00;;;;;21.53;59.08;101769.63;5031581;28;8843;-67
2022/08/26 11:38:18;;;;;;;;;0.00;0.00;;;;;21.62;59.34;101759.94;5025692;28;8824;-67
2022/08/26 11:40:55;;;;;;;;;0.50;0.00;;;;;21.68;58.54;101763.59;5033772;28;8878;-66
2022/08/26 11:43:25;;;;;;;;;0.00;0.00;;;;;21.62;58.63;101759.09;5033727;28;8982;-67
2022/08/26 11:45:58;;;;;;;;;1.75;0.00;;;;;;;;5031858;28;8828;-67
2022/08/26 11:48:29;;;;;;;;;0.00;0.00;;;;;21.78;58.81;101760.22;5025269;28;8927;-67
2022/08/26 11:51:16;;;;;;;;;0.25;0.00;;;;;21.89;58.69;101754.66;5027965;28;8844;-66
2022/08/26 11:53:43;;;;;;;;;0.75;0.00;;;;;22.01;58.54;101749.09;5028039;28;8824;-66
2022/08/26 11:56:26;;;;;;;;;1.00;0.00;;;;;22.06;58.38;101753.84;5031679;28;8848;-66
2022/08/26 11:58:59;;;;;;;;;0.00;0.00;;;;;22.01;58.36;101759.25;5031655;28;8901;-66
2022/08/26 12:01:30;;;;;;;;;1.25;0.00;;;;;21.91;58.55;101751.66;5025585;28;8946;-67
2022/08/26 12:03:58;;;;;;;;;0.50;0.00;;;;;21.90;58.66;101756.31;5032291;28;8840;-67
2022/08/26 12:06:29;;;;;;;;;0.75;0.75;;;;;21.88;58.41;101757.66;5023743;28;8967;-67
2022/08/26 12:09:01;;;;;;;;;1.00;0.00;;;;;21.87;58.41;101750.50;5045920;28;8812;-66